Time;durP1;ratioP1;P1;durP2;ratioP2;P2;SDS_P1;SDS_P2;PMS_P1;PMS_P2;Temp;Humidity;BMP_temperature;BMP_pressure;BME280_temperature;BME280_humidity;BME280_pressure;Samples;Min_cycle;Max_cycle;Signal;HPM_P1;HPM_P2
2020/12/23 00:01:20;;;;;;;4.10;0.20;;;24.10;85.90;;;;;;4929206;29;20121;-84
2020/12/23 00:03:48;;;;;;;1.77;0.10;;;24.90;84.60;;;;;;4949021;28;20039;-82
2020/12/23 00:06:16;;;;;;;1.90;0.15;;;24.80;82.70;;;;;;4929350;29;20042;-82
2020/12/23 00:08:44;;;;;;;1.00;0.10;;;24.50;82.30;;;;;;4932804;29;20284;-81
2020/12/23 00:11:15;;;;;;;2.63;0.30;;;24.20;83.90;;;;;;4944873;28;20034;-80
2020/12/23 00:13:46;;;;;;;2.47;0.30;;;23.90;85.00;;;;;;4953252;28;20027;-79
2020/12/23 00:16:14;;;;;;;2.55;0.35;;;24.00;85.40;;;;;;4936197;29;20028;-81
2020/12/23 00:18:41;;;;;;;2.50;0.35;;;24.30;86.40;;;;;;4954517;28;20114;-79
2020/12/23 00:21:09;;;;;;;4.40;0.47;;;24.40;84.80;;;;;;4983611;23;20061;-79
2020/12/23 00:23:37;;;;;;;1.05;0.20;;;25.00;86.70;;;;;;4996896;28;20086;-80
2020/12/23 00:26:08;;;;;;;1.73;0.20;;;25.30;85.50;;;;;;4995649;28;20030;-80
2020/12/23 00:28:35;;;;;;;2.17;0.38;;;25.40;82.70;;;;;;4983673;28;20033;-79
2020/12/23 00:31:03;;;;;;;1.50;0.30;;;25.40;83.80;;;;;;4998307;28;20504;-79
2020/12/23 00:33:30;;;;;;;1.33;0.30;;;25.40;84.30;;;;;;4974192;28;20022;-80
2020/12/23 00:35:58;;;;;;;2.22;0.20;;;25.90;83.50;;;;;;4987191;28;20026;-81
2020/12/23 00:38:25;;;;;;;2.65;0.20;;;25.70;82.50;;;;;;4973694;28;20057;-80
2020/12/23 00:40:53;;;;;;;2.15;0.25;;;25.50;82.70;;;;;;4974515;28;20155;-80
2020/12/23 00:43:20;;;;;;;0.40;0.20;;;25.20;82.80;;;;;;4974203;28;20038;-79
2020/12/23 00:45:47;;;;;;;0.77;0.20;;;25.40;84.30;;;;;;4992863;28;20105;-80
2020/12/23 00:48:15;;;;;;;1.13;0.25;;;25.30;84.00;;;;;;4990625;28;20030;-79
2020/12/23 00:50:42;;;;;;;1.05;0.10;;;25.50;83.30;;;;;;4975762;28;20060;-79
2020/12/23 00:53:09;;;;;;;0.40;0.20;;;25.30;83.30;;;;;;4980434;28;20084;-80
2020/12/23 00:55:36;;;;;;;3.28;0.50;;;25.40;85.40;;;;;;4966162;28;20028;-80
2020/12/23 00:58:04;;;;;;;1.45;0.20;;;25.80;83.60;;;;;;4966932;28;20034;-80
2020/12/23 01:00:31;;;;;;;2.17;0.30;;;25.80;82.70;;;;;;4959862;28;20027;-76
2020/12/23 01:02:58;;;;;;;2.95;0.30;;;25.80;84.10;;;;;;4977651;28;20324;-80
2020/12/23 01:05:26;;;;;;;1.33;0.50;;;25.70;82.20;;;;;;4974006;28;20058;-79
2020/12/23 01:07:53;;;;;;;1.42;0.20;;;25.80;85.10;;;;;;4973086;28;20066;-79
2020/12/23 01:10:20;;;;;;;3.42;0.70;;;25.90;84.30;;;;;;4975125;28;20027;-79
2020/12/23 01:12:47;;;;;;;4.07;0.35;;;25.60;83.90;;;;;;4978811;28;20084;-79
2020/12/23 01:15:18;;;;;;;4.85;0.73;;;25.20;83.00;;;;;;4973569;28;20504;-79
2020/12/23 01:17:45;;;;;;;1.92;0.47;;;25.30;84.60;;;;;;4966534;28;20046;-78
2020/12/23 01:20:12;;;;;;;1.65;0.40;;;25.80;83.80;;;;;;4992911;28;20093;-79
2020/12/23 01:22:39;;;;;;;3.45;0.30;;;25.90;82.40;;;;;;4999555;23;20102;-79
2020/12/23 01:25:07;;;;;;;2.97;0.75;;;25.40;83.60;;;;;;4990771;23;20112;-78
2020/12/23 01:27:34;;;;;;;2.80;0.50;;;25.60;83.60;;;;;;4965614;28;20029;-78
2020/12/23 01:30:01;;;;;;;3.00;0.30;;;25.70;84.30;;;;;;4996553;23;20065;-79
2020/12/23 01:32:29;;;;;;;3.70;0.30;;;25.80;84.30;;;;;;4981002;28;20435;-80
2020/12/23 01:34:56;;;;;;;2.67;0.50;;;26.10;82.30;;;;;;4974346;28;20029;-79
2020/12/23 01:37:23;;;;;;;1.23;0.50;;;25.70;85.90;;;;;;4971524;28;20031;-80
2020/12/23 01:39:51;;;;;;;4.05;0.55;;;25.80;83.20;;;;;;4995857;23;20051;-81
2020/12/23 01:42:18;;;;;;;2.08;0.38;;;25.90;85.20;;;;;;4974740;28;20109;-85
2020/12/23 01:44:48;;;;;;;3.10;0.75;;;25.90;85.50;;;;;;4958154;28;20129;-83
2020/12/23 01:47:22;;;;;;;2.80;0.30;;;25.80;83.10;;;;;;4971816;28;20573;-84
2020/12/23 01:49:52;;;;;;;;;;;25.60;85.40;;;;;;4980731;28;20105;-84
2020/12/23 01:52:20;;;;;;;4.82;0.40;;;25.70;85.40;;;;;;4971653;28;19914;-85
2020/12/23 01:54:51;;;;;;;5.15;0.75;;;25.90;85.80;;;;;;4992502;23;20039;-83
2020/12/23 01:57:18;;;;;;;4.97;0.55;;;25.80;86.40;;;;;;4966524;28;20085;-84
2020/12/23 01:59:50;;;;;;;4.43;0.40;;;25.50;87.60;;;;;;4938557;28;20500;-84
2020/12/23 02:02:44;;;;;;;2.85;0.40;;;25.70;85.60;;;;;;4969568;28;20041;-84
2020/12/23 02:05:11;;;;;;;4.47;1.88;;;25.70;88.70;;;;;;4961960;28;20038;-83
2020/12/23 02:07:39;;;;;;;1.98;0.40;;;26.10;85.00;;;;;;4971344;28;20388;-82
2020/12/23 02:10:08;;;;;;;7.00;2.70;;;25.80;85.70;;;;;;4973278;28;20022;-84
2020/12/23 02:12:35;;;;;;;1.80;0.52;;;26.30;86.80;;;;;;4970655;28;20030;-82
2020/12/23 02:15:11;;;;;;;1.98;0.40;;;26.00;86.10;;;;;;4969367;28;20027;-82
2020/12/23 02:17:39;;;;;;;1.95;0.40;;;25.50;87.20;;;;;;4971155;28;20089;-82
2020/12/23 02:20:09;;;;;;;3.08;0.40;;;25.60;86.40;;;;;;4955423;28;20034;-82
2020/12/23 02:22:36;;;;;;;1.27;0.45;;;26.00;86.20;;;;;;4970862;28;20046;-83
2020/12/23 02:25:04;;;;;;;2.13;0.40;;;26.40;83.20;;;;;;4971313;28;20121;-84
2020/12/23 02:27:32;;;;;;;3.78;0.40;;;26.20;83.20;;;;;;4969187;28;20114;-83
2020/12/23 02:30:00;;;;;;;2.60;0.70;;;26.10;84.40;;;;;;4984661;23;20117;-86
2020/12/23 02:32:27;;;;;;;3.53;0.35;;;25.90;83.10;;;;;;4969392;28;20034;-85
2020/12/23 02:34:55;;;;;;;4.00;0.55;;;25.60;83.20;;;;;;4972182;28;20081;-85
2020/12/23 02:37:23;;;;;;;1.30;0.50;;;26.00;84.20;;;;;;4970146;28;20015;-82
2020/12/23 02:39:55;;;;;;;2.33;0.45;;;26.20;81.80;;;;;;4972076;28;20038;-86
2020/12/23 02:42:24;;;;;;;2.10;0.28;;;26.20;80.30;;;;;;4951961;28;20035;-77
2020/12/23 02:44:54;;;;;;;3.40;0.40;;;26.10;81.30;;;;;;4966885;28;20108;-79
2020/12/23 02:47:22;;;;;;;2.05;0.28;;;26.00;82.00;;;;;;4962733;28;20019;-80
2020/12/23 02:49:49;;;;;;;1.55;0.35;;;25.80;82.50;;;;;;4967489;28;20078;-78
2020/12/23 02:52:17;;;;;;;5.78;0.90;;;25.70;80.70;;;;;;4950312;28;20430;-78
2020/12/23 02:54:44;;;;;;;3.03;0.52;;;25.50;83.50;;;;;;4968183;28;20031;-78
2020/12/23 02:57:11;;;;;;;3.78;0.45;;;25.60;82.90;;;;;;4970199;28;20035;-79
2020/12/23 02:59:39;;;;;;;5.68;0.73;;;25.60;84.80;;;;;;4972579;28;20510;-80
2020/12/23 03:02:07;;;;;;;2.05;0.57;;;25.30;83.40;;;;;;4968126;28;20039;-75
2020/12/23 03:04:35;;;;;;;1.80;0.57;;;25.20;83.00;;;;;;4969943;28;20087;-77
2020/12/23 03:07:02;;;;;;;3.65;0.70;;;25.30;84.80;;;;;;4967147;28;20031;-77
2020/12/23 03:09:30;;;;;;;3.13;0.40;;;25.40;86.10;;;;;;4974966;28;20034;-77
2020/12/23 03:11:57;;;;;;;2.97;0.40;;;25.70;86.10;;;;;;4957322;28;20033;-79
2020/12/23 03:14:25;;;;;;;2.78;0.30;;;26.10;86.30;;;;;;4975891;28;20027;-79
2020/12/23 03:16:52;;;;;;;3.00;0.50;;;26.20;82.70;;;;;;4973454;28;20050;-80
2020/12/23 03:19:19;;;;;;;5.78;0.90;;;25.90;83.80;;;;;;4958163;28;20031;-79
2020/12/23 03:21:47;;;;;;;5.05;0.60;;;25.80;84.80;;;;;;4957012;28;20026;-78
2020/12/23 03:24:14;;;;;;;6.25;1.13;;;25.60;84.10;;;;;;4966417;28;20027;-79
2020/12/23 03:26:41;;;;;;;2.08;0.30;;;25.60;83.60;;;;;;4958338;28;20046;-85
2020/12/23 03:29:08;;;;;;;3.78;0.32;;;25.30;81.00;;;;;;4983793;23;20058;-86
2020/12/23 03:31:36;;;;;;;5.78;0.40;;;25.20;84.40;;;;;;4989869;23;20515;-78
2020/12/23 03:34:03;;;;;;;6.90;1.05;;;25.30;84.60;;;;;;4990494;23;20079;-81
2020/12/23 03:36:30;;;;;;;4.40;0.32;;;25.00;87.40;;;;;;4980900;23;20031;-77
2020/12/23 03:38:58;;;;;;;2.53;0.40;;;24.50;87.40;;;;;;4974844;28;20031;-79
2020/12/23 03:41:25;;;;;;;6.45;0.70;;;24.70;85.80;;;;;;4952513;28;20432;-78
2020/12/23 03:43:52;;;;;;;6.72;1.17;;;24.70;87.30;;;;;;4956182;29;20539;-82
2020/12/23 03:46:20;;;;;;;5.05;0.60;;;24.70;89.50;;;;;;4972714;23;20516;-85
2020/12/23 03:48:47;;;;;;;9.63;1.08;;;25.00;87.90;;;;;;4973333;28;20027;-83
2020/12/23 03:51:16;;;;;;;3.40;0.47;;;24.80;89.20;;;;;;4974614;28;20031;-84
2020/12/23 03:53:43;;;;;;;5.43;0.52;;;24.70;88.80;;;;;;4974955;28;20023;-82
2020/12/23 03:56:10;;;;;;;3.85;0.55;;;24.70;87.60;;;;;;4957766;28;20165;-82
2020/12/23 03:58:38;;;;;;;4.45;0.68;;;25.10;87.20;;;;;;4973490;28;20133;-81
2020/12/23 04:01:05;;;;;;;6.68;1.23;;;24.60;87.70;;;;;;4975319;28;20015;-82
2020/12/23 04:03:32;;;;;;;7.82;2.38;;;24.70;88.30;;;;;;4974992;23;20054;-82
2020/12/23 04:06:02;;;;;;;4.72;0.60;;;24.90;88.70;;;;;;4992609;28;20047;-81
2020/12/23 04:08:30;;;;;;;3.22;0.50;;;24.90;87.10;;;;;;4975682;28;20072;-82
2020/12/23 04:10:57;;;;;;;2.10;0.55;;;24.90;84.80;;;;;;4975007;28;20019;-84
2020/12/23 04:13:24;;;;;;;3.13;0.45;;;24.60;84.90;;;;;;4974544;28;20042;-81
2020/12/23 04:15:52;;;;;;;4.22;0.70;;;24.20;87.30;;;;;;4974869;28;20015;-81
2020/12/23 04:18:19;;;;;;;3.58;0.40;;;24.10;87.60;;;;;;4980503;28;20518;-79
2020/12/23 04:20:46;;;;;;;2.72;0.45;;;24.00;88.20;;;;;;4992215;28;20447;-81
2020/12/23 04:23:14;;;;;;;4.05;0.98;;;23.60;89.00;;;;;;4960264;28;20050;-81
2020/12/23 04:25:41;;;;;;;3.28;0.63;;;24.00;90.00;;;;;;4955821;28;20118;-81
2020/12/23 04:28:10;;;;;;;4.60;0.50;;;24.00;88.30;;;;;;4975211;28;20308;-80
2020/12/23 04:30:37;;;;;;;3.33;0.40;;;23.90;85.20;;;;;;4977044;28;20511;-83
2020/12/23 04:33:04;;;;;;;4.47;0.40;;;23.60;87.80;;;;;;4971534;28;20130;-80
2020/12/23 04:35:32;;;;;;;2.63;0.47;;;23.70;87.50;;;;;;4980066;23;20211;-82
2020/12/23 04:37:59;;;;;;;4.75;0.60;;;23.80;88.20;;;;;;4964010;28;20031;-80
2020/12/23 04:40:26;;;;;;;4.70;0.90;;;23.60;86.80;;;;;;4953956;29;20354;-82
2020/12/23 04:42:54;;;;;;;4.07;0.60;;;23.60;86.70;;;;;;4935091;29;20055;-80
2020/12/23 04:45:22;;;;;;;2.67;0.40;;;23.50;86.30;;;;;;4954829;28;20435;-81
2020/12/23 04:47:53;;;;;;;4.90;0.93;;;23.60;86.10;;;;;;4952971;28;20404;-82
2020/12/23 04:50:22;;;;;;;5.40;0.60;;;23.70;85.70;;;;;;4955216;28;20030;-82
2020/12/23 04:52:49;;;;;;;8.07;1.08;;;23.50;88.10;;;;;;4952750;28;20023;-83
2020/12/23 04:55:17;;;;;;;6.05;0.77;;;23.50;88.80;;;;;;4954949;29;20027;-82
2020/12/23 04:57:45;;;;;;;7.15;0.77;;;23.60;89.40;;;;;;4952467;28;20555;-82
2020/12/23 05:00:12;;;;;;;7.32;0.70;;;23.80;87.10;;;;;;4954045;29;20027;-81
2020/12/23 05:02:40;;;;;;;5.90;1.38;;;23.80;87.10;;;;;;4940974;29;20122;-80
2020/12/23 05:05:07;;;;;;;7.22;0.98;;;23.70;90.10;;;;;;4936072;29;20027;-77
2020/12/23 05:07:34;;;;;;;7.00;1.20;;;23.80;89.70;;;;;;4944195;28;20029;-75
2020/12/23 05:10:06;;;;;;;5.03;0.70;;;23.70;90.00;;;;;;4952315;28;20113;-75
2020/12/23 05:12:33;;;;;;;5.35;0.70;;;23.70;86.00;;;;;;4949857;28;20049;-75
2020/12/23 05:15:05;;;;;;;3.88;0.82;;;23.70;84.40;;;;;;4951668;28;20047;-75
2020/12/23 05:17:33;;;;;;;7.07;0.95;;;23.40;86.00;;;;;;4951629;28;20459;-75
2020/12/23 05:20:00;;;;;;;8.95;0.85;;;23.40;87.70;;;;;;4935465;29;20023;-75
2020/12/23 05:22:28;;;;;;;5.13;0.40;;;23.30;86.30;;;;;;4951521;29;20134;-74
2020/12/23 05:24:56;;;;;;;3.95;0.52;;;23.20;84.70;;;;;;4948193;28;20047;-74
2020/12/23 05:27:24;;;;;;;2.75;0.70;;;23.10;86.00;;;;;;4948796;28;20023;-75
2020/12/23 05:29:51;;;;;;;3.13;0.47;;;23.10;87.70;;;;;;4946900;28;20432;-75
2020/12/23 05:32:22;;;;;;;5.25;0.95;;;23.30;88.20;;;;;;4948800;28;20020;-76
2020/12/23 05:34:51;;;;;;;3.80;0.60;;;23.40;87.00;;;;;;4953829;28;20027;-74
2020/12/23 05:37:21;;;;;;;5.10;0.40;;;23.20;86.60;;;;;;4951816;28;20512;-74
2020/12/23 05:39:49;;;;;;;4.25;0.70;;;23.20;87.00;;;;;;4950838;28;20035;-74
2020/12/23 05:42:17;;;;;;;4.80;0.55;;;23.20;86.30;;;;;;4951807;29;20038;-74
2020/12/23 05:45:06;;;;;;;4.53;0.60;;;23.20;87.90;;;;;;4952843;29;20053;-74
2020/12/23 05:47:34;;;;;;;2.55;0.40;;;23.20;86.30;;;;;;4951946;28;20393;-73
2020/12/23 05:50:10;;;;;;;2.65;0.57;;;23.20;86.10;;;;;;4967068;23;20105;-76
2020/12/23 05:52:37;;;;;;;9.32;0.63;;;23.40;84.10;;;;;;4996207;23;20033;-77
2020/12/23 05:55:17;;;;;;;2.88;0.77;;;23.20;83.20;;;;;;4978567;23;20349;-76
2020/12/23 05:57:45;;;;;;;4.57;0.70;;;23.30;85.00;;;;;;4969157;28;20117;-75
2020/12/23 06:00:14;;;;;;;6.70;0.63;;;23.20;87.10;;;;;;4963259;23;20191;-75
2020/12/23 06:03:10;;;;;;;5.30;0.85;;;23.30;87.20;;;;;;4974363;28;21821;-76
2020/12/23 06:05:44;;;;;;;7.10;0.98;;;23.10;90.00;;;;;;4977821;28;20125;-76
2020/12/23 06:08:14;;;;;;;4.60;0.50;;;23.20;84.70;;;;;;4969904;28;20149;-75
2020/12/23 06:10:43;;;;;;;3.88;0.60;;;23.20;85.70;;;;;;4957998;28;20026;-77
2020/12/23 06:13:21;;;;;;;3.65;0.40;;;23.20;85.00;;;;;;4957695;23;20083;-75
2020/12/23 06:15:59;;;;;;;2.92;0.60;;;23.10;86.70;;;;;;4946076;28;20027;-73
2020/12/23 06:18:27;;;;;;;5.50;0.63;;;22.90;86.60;;;;;;4942276;28;20024;-78
2020/12/23 06:20:58;;;;;;;5.55;0.70;;;22.80;88.80;;;;;;4933049;29;20046;-78
2020/12/23 06:23:28;;;;;;;9.23;1.35;;;22.80;90.40;;;;;;4948118;28;20031;-79
2020/12/23 06:26:00;;;;;;;7.43;1.45;;;22.80;90.40;;;;;;4936781;29;20023;-79
2020/12/23 06:28:34;;;;;;;3.70;1.40;;;22.80;91.50;;;;;;4969627;23;20046;-78
2020/12/23 06:31:02;;;;;;;7.47;0.95;;;22.80;89.70;;;;;;4972372;28;20102;-79
2020/12/23 06:33:30;;;;;;;9.20;1.05;;;22.80;91.30;;;;;;4954007;28;20079;-78
2020/12/23 06:36:11;;;;;;;7.57;0.82;;;22.60;92.10;;;;;;4953702;28;20027;-78
2020/12/23 06:38:38;;;;;;;6.90;1.02;;;22.60;93.00;;;;;;4951510;28;20058;-78
2020/12/23 06:41:05;;;;;;;7.45;1.33;;;22.60;93.00;;;;;;4950851;28;20027;-79
2020/12/23 06:43:55;;;;;;;6.88;0.77;;;22.70;93.50;;;;;;4968281;28;20050;-78
2020/12/23 06:46:22;;;;;;;5.93;0.80;;;22.70;93.30;;;;;;4964520;28;20025;-79
2020/12/23 06:48:50;;;;;;;4.20;0.65;;;22.70;94.30;;;;;;4952690;28;20031;-78
2020/12/23 06:51:55;;;;;;;8.43;2.85;;;22.60;95.10;;;;;;4951745;28;20031;-79
2020/12/23 06:54:49;;;;;;;7.95;2.00;;;22.50;93.70;;;;;;4931327;29;20055;-78
2020/12/23 06:57:37;;;;;;;6.50;1.67;;;22.30;94.20;;;;;;4921408;29;20067;-77
2020/12/23 07:00:35;;;;;;;8.98;1.85;;;22.30;95.00;;;;;;4965237;23;20041;-79
2020/12/23 07:03:05;;;;;;;9.68;2.05;;;22.30;96.20;;;;;;4970999;28;20035;-77
2020/12/23 07:05:37;;;;;;;12.05;1.45;;;22.30;96.80;;;;;;4972377;28;20062;-78
2020/12/23 07:08:09;;;;;;;9.25;1.33;;;22.20;97.40;;;;;;4964249;28;20015;-78
2020/12/23 07:10:43;;;;;;;10.23;1.38;;;22.00;98.00;;;;;;4936914;28;20027;-78
2020/12/23 07:13:13;;;;;;;9.60;1.40;;;22.10;97.60;;;;;;4966488;28;20055;-83
2020/12/23 07:15:57;;;;;;;12.80;1.58;;;21.90;97.90;;;;;;4970598;28;20078;-82
2020/12/23 07:18:30;;;;;;;11.70;1.23;;;21.80;98.90;;;;;;4966849;28;20026;-89
2020/12/23 07:21:03;;;;;;;8.25;1.05;;;21.90;98.30;;;;;;4972650;28;20034;-89
2020/12/23 07:23:32;;;;;;;11.17;0.93;;;21.90;98.70;;;;;;4970759;28;20109;-89
2020/12/23 07:26:07;;;;;;;11.35;0.93;;;21.90;97.80;;;;;;4972264;28;20033;-88
2020/12/23 07:28:38;;;;;;;11.68;0.98;;;21.80;97.10;;;;;;4970599;28;20154;-88
2020/12/23 07:31:07;;;;;;;7.25;1.00;;;21.80;97.80;;;;;;4972739;28;20082;-87
2020/12/23 07:33:39;;;;;;;9.73;1.88;;;21.70;98.00;;;;;;4968434;28;20037;-86
2020/12/23 07:36:07;;;;;;;4.50;0.68;;;21.50;98.20;;;;;;4971249;28;20058;-85
2020/12/23 07:38:39;;;;;;;7.47;1.27;;;21.50;98.00;;;;;;4970117;28;20037;-88
2020/12/23 07:41:11;;;;;;;12.60;1.25;;;21.40;98.50;;;;;;4972180;28;20054;-86
2020/12/23 07:43:38;;;;;;;13.93;1.83;;;21.40;98.50;;;;;;4954266;28;20054;-87
2020/12/23 07:46:05;;;;;;;8.02;1.13;;;21.50;99.10;;;;;;4954658;28;20126;-87
2020/12/23 07:48:33;;;;;;;9.25;1.35;;;21.50;98.50;;;;;;4967673;28;20134;-86
2020/12/23 07:51:01;;;;;;;6.55;0.93;;;21.50;99.80;;;;;;4952333;28;20198;-88
2020/12/23 07:53:30;;;;;;;10.68;1.77;;;21.40;99.80;;;;;;4966188;28;20022;-84
2020/12/23 07:56:01;;;;;;;4.88;1.08;;;21.40;99.90;;;;;;4963012;28;20050;-86
2020/12/23 07:58:43;;;;;;;9.93;1.08;;;21.20;99.90;;;;;;4974238;28;20039;-85
2020/12/23 08:01:10;;;;;;;12.38;1.52;;;21.20;99.90;;;;;;4992269;23;20062;-88
2020/12/23 08:03:37;;;;;;;7.72;0.90;;;21.20;99.90;;;;;;5007099;23;20081;-87
2020/12/23 08:06:10;;;;;;;11.77;1.15;;;21.10;99.90;;;;;;4961542;28;20063;-87
2020/12/23 08:08:38;;;;;;;8.27;1.85;;;21.10;99.90;;;;;;4951137;23;20132;-84
2020/12/23 08:11:16;;;;;;;12.38;1.85;;;21.10;99.90;;;;;;4970470;28;20033;-87
2020/12/23 08:13:44;;;;;;;8.60;1.35;;;21.10;99.90;;;;;;4953201;28;20086;-84
2020/12/23 08:16:13;;;;;;;8.95;2.40;;;21.00;99.90;;;;;;4952205;28;20135;-84
2020/12/23 08:18:42;;;;;;;10.93;1.15;;;21.00;99.90;;;;;;4990258;23;20058;-86
2020/12/23 08:21:16;;;;;;;8.77;1.33;;;21.00;99.90;;;;;;4957896;28;20076;-85
2020/12/23 08:23:46;;;;;;;9.73;1.55;;;21.10;99.90;;;;;;4973705;28;20062;-85
2020/12/23 08:26:16;;;;;;;10.93;1.50;;;21.10;99.90;;;;;;4974132;28;20019;-85
2020/12/23 08:28:45;;;;;;;8.85;1.25;;;21.00;99.90;;;;;;4974086;28;20165;-84
2020/12/23 08:31:20;;;;;;;8.82;1.08;;;20.80;99.90;;;;;;4955059;28;20030;-82
2020/12/23 08:33:50;;;;;;;8.88;1.55;;;20.80;99.90;;;;;;4991024;23;20047;-82
2020/12/23 08:36:20;;;;;;;7.57;1.02;;;20.80;99.90;;;;;;4974520;28;20031;-82
2020/12/23 08:38:49;;;;;;;8.60;1.48;;;20.70;99.90;;;;;;4966752;28;20027;-83
2020/12/23 08:41:20;;;;;;;14.38;2.22;;;20.70;99.90;;;;;;4957194;28;20480;-84
2020/12/23 08:43:51;;;;;;;9.80;1.15;;;20.70;99.90;;;;;;4965108;28;20051;-83
2020/12/23 08:46:26;;;;;;;6.03;1.00;;;20.70;99.90;;;;;;4974045;28;20387;-82
2020/12/23 08:48:54;;;;;;;9.82;1.27;;;20.70;99.90;;;;;;4966837;28;20078;-81
2020/12/23 08:51:26;;;;;;;11.13;1.95;;;20.70;99.90;;;;;;4954277;29;20058;-83
2020/12/23 08:53:54;;;;;;;7.82;0.70;;;20.60;99.90;;;;;;4966480;28;20045;-83
2020/12/23 08:56:32;;;;;;;8.40;1.33;;;20.60;99.90;;;;;;4956358;28;20037;-85
2020/12/23 08:59:00;;;;;;;11.55;1.33;;;20.50;99.90;;;;;;4967208;28;20089;-83
2020/12/23 09:01:29;;;;;;;6.43;1.13;;;20.50;99.90;;;;;;4952576;28;20031;-83
2020/12/23 09:04:03;;;;;;;8.52;1.33;;;20.50;99.90;;;;;;4973435;28;20051;-84
2020/12/23 09:09:11;;;;;;;14.02;2.55;;;20.50;99.90;;;;;;4953733;28;20086;-83
2020/12/23 09:11:47;;;;;;;10.65;1.67;;;20.40;99.90;;;;;;4954615;28;20030;-83
2020/12/23 09:14:22;;;;;;;9.80;1.23;;;20.40;99.90;;;;;;4948755;29;20089;-83
2020/12/23 09:17:08;;;;;;;15.27;1.45;;;20.50;99.90;;;;;;4954393;28;20082;-83
2020/12/23 09:19:49;;;;;;;8.85;1.83;;;20.40;99.90;;;;;;4954654;28;20062;-83
2020/12/23 09:22:37;;;;;;;12.40;1.60;;;20.40;99.90;;;;;;4952397;29;20027;-83
2020/12/23 09:25:37;;;;;;;10.00;1.92;;;20.50;99.90;;;;;;4933441;28;20031;-83
2020/12/23 09:28:13;;;;;;;8.48;1.35;;;20.40;99.90;;;;;;4923680;29;20406;-83
2020/12/23 09:30:43;;;;;;;14.77;1.77;;;20.30;99.90;;;;;;4951349;28;20034;-82
2020/12/23 09:33:15;;;;;;;8.75;1.17;;;20.40;99.90;;;;;;4953735;28;20339;-82
2020/12/23 09:35:44;;;;;;;8.43;1.20;;;20.40;99.90;;;;;;4952523;29;20086;-84
2020/12/23 09:38:35;;;;;;;8.50;1.90;;;20.30;99.90;;;;;;4953989;28;20102;-84
2020/12/23 09:41:10;;;;;;;11.07;1.23;;;20.30;99.90;;;;;;4953855;28;20391;-85
2020/12/23 09:43:38;;;;;;;7.70;1.23;;;20.30;99.90;;;;;;4950869;28;20035;-85
2020/12/23 09:46:08;;;;;;;9.82;1.30;;;20.30;99.90;;;;;;4953067;28;20038;-86
2020/12/23 09:48:36;;;;;;;8.13;1.58;;;20.30;99.90;;;;;;4953496;28;20023;-84
2020/12/23 09:51:06;;;;;;;6.97;1.13;;;20.10;99.90;;;;;;4934938;29;20039;-81
2020/12/23 09:53:33;;;;;;;10.20;1.67;;;20.20;99.90;;;;;;4945496;29;20429;-85
2020/12/23 09:56:01;;;;;;;7.43;0.88;;;20.10;99.90;;;;;;4944498;28;20053;-85
2020/12/23 09:58:29;;;;;;;9.23;1.30;;;20.20;99.90;;;;;;4952826;28;20110;-85
2020/12/23 10:00:56;;;;;;;10.18;1.13;;;20.20;99.90;;;;;;4950977;29;20035;-86
2020/12/23 10:03:24;;;;;;;14.27;2.10;;;20.10;99.90;;;;;;4943774;29;20070;-84
2020/12/23 10:05:51;;;;;;;13.60;1.40;;;20.10;99.90;;;;;;4951379;29;20031;-85
2020/12/23 10:08:18;;;;;;;9.00;1.23;;;20.00;99.90;;;;;;4976802;23;20101;-84
2020/12/23 10:10:45;;;;;;;7.43;1.27;;;20.10;99.90;;;;;;4999289;23;20091;-85
2020/12/23 10:13:13;;;;;;;11.48;1.40;;;20.10;99.90;;;;;;4971556;28;20042;-79
2020/12/23 10:15:40;;;;;;;10.73;1.20;;;20.10;99.90;;;;;;4973575;23;20080;-88
2020/12/23 10:18:07;;;;;;;11.05;1.85;;;20.10;99.90;;;;;;4973182;28;20077;-88
2020/12/23 10:20:34;;;;;;;6.85;0.77;;;20.20;99.90;;;;;;4956249;28;20035;-88
2020/12/23 10:23:02;;;;;;;9.85;1.10;;;20.10;99.90;;;;;;4972414;28;20645;-89
2020/12/23 10:25:30;;;;;;;10.18;1.90;;;20.10;99.90;;;;;;4962876;23;20099;-87
2020/12/23 10:27:57;;;;;;;10.50;1.42;;;20.10;99.90;;;;;;4955225;28;20450;-89
2020/12/23 10:30:24;;;;;;;12.63;1.10;;;20.10;99.90;;;;;;4953449;28;20495;-88
2020/12/23 10:32:51;;;;;;;12.57;2.17;;;20.10;99.90;;;;;;4954676;28;20042;-89
2020/12/23 10:35:19;;;;;;;9.73;1.80;;;20.20;99.90;;;;;;4967227;23;20050;-82
2020/12/23 10:37:46;;;;;;;9.52;1.33;;;20.20;99.90;;;;;;4960620;28;20084;-82
2020/12/23 10:40:14;;;;;;;11.65;1.55;;;20.10;99.90;;;;;;4958485;28;20023;-81
2020/12/23 10:42:41;;;;;;;9.73;1.08;;;20.10;99.90;;;;;;4990379;23;20050;-80
2020/12/23 10:45:08;;;;;;;9.85;1.20;;;20.00;99.90;;;;;;4970603;28;20544;-82
2020/12/23 10:47:36;;;;;;;10.90;1.35;;;20.00;99.90;;;;;;4971786;28;20030;-82
2020/12/23 10:50:04;;;;;;;9.30;1.65;;;19.90;99.90;;;;;;4968628;28;20089;-82
2020/12/23 10:52:31;;;;;;;8.82;1.10;;;19.90;99.90;;;;;;4972461;28;20541;-82
2020/12/23 10:54:59;;;;;;;9.70;1.38;;;19.90;99.90;;;;;;4976352;28;20023;-82
2020/12/23 10:57:26;;;;;;;9.65;1.00;;;19.90;99.90;;;;;;4971323;28;20027;-82
2020/12/23 10:59:53;;;;;;;8.60;1.38;;;19.90;99.90;;;;;;4957619;28;20039;-82
2020/12/23 11:02:21;;;;;;;10.82;1.40;;;19.90;99.90;;;;;;4980891;28;20030;-82
2020/12/23 11:04:48;;;;;;;10.77;0.90;;;19.90;99.90;;;;;;4980611;28;20027;-82
2020/12/23 11:07:15;;;;;;;20.85;3.35;;;19.90;99.90;;;;;;4971476;28;20023;-82
2020/12/23 11:09:43;;;;;;;11.35;1.25;;;19.90;99.90;;;;;;4975290;28;20410;-82
2020/12/23 11:12:11;;;;;;;10.60;1.52;;;19.80;99.90;;;;;;4955429;28;20420;-82
2020/12/23 11:14:38;;;;;;;10.18;1.00;;;19.70;99.90;;;;;;4988298;23;20051;-82
2020/12/23 11:17:06;;;;;;;15.23;2.65;;;19.70;99.90;;;;;;4953029;28;20031;-83
2020/12/23 11:19:33;;;;;;;8.93;1.50;;;19.80;99.90;;;;;;4952261;29;20445;-81
2020/12/23 11:22:01;;;;;;;11.05;1.75;;;19.80;99.90;;;;;;4949203;28;20509;-81
2020/12/23 11:24:28;;;;;;;10.23;1.17;;;19.80;99.90;;;;;;4951193;28;20083;-81
2020/12/23 11:26:55;;;;;;;7.43;1.10;;;19.80;99.90;;;;;;4951730;28;20047;-82
2020/12/23 11:29:23;;;;;;;10.60;1.17;;;19.80;99.90;;;;;;4950502;28;20465;-82
2020/12/23 11:31:53;;;;;;;7.60;1.48;;;19.80;99.90;;;;;;4952446;28;20397;-81
2020/12/23 11:34:20;;;;;;;9.05;1.75;;;19.80;99.90;;;;;;4953923;28;20031;-82
2020/12/23 11:36:48;;;;;;;8.30;0.90;;;19.70;99.90;;;;;;4954959;29;20027;-82
2020/12/23 11:39:15;;;;;;;11.77;2.20;;;19.70;99.90;;;;;;4954067;28;20030;-82
2020/12/23 11:41:42;;;;;;;4.38;0.77;;;19.60;99.90;;;;;;4948837;28;20045;-81
2020/12/23 11:44:10;;;;;;;5.47;1.02;;;19.60;99.90;;;;;;4949307;29;20457;-82
2020/12/23 11:46:37;;;;;;;10.27;1.08;;;19.60;99.90;;;;;;4955110;29;20031;-82
2020/12/23 11:49:05;;;;;;;10.32;2.05;;;19.60;99.90;;;;;;4947168;28;20027;-82
2020/12/23 11:51:32;;;;;;;11.73;1.58;;;19.60;99.90;;;;;;4954793;29;20028;-82
2020/12/23 11:53:59;;;;;;;7.03;1.17;;;19.70;99.90;;;;;;4955474;28;20027;-82
2020/12/23 11:56:26;;;;;;;12.90;1.48;;;19.60;99.90;;;;;;4954557;28;20475;-82
2020/12/23 11:58:54;;;;;;;7.45;0.90;;;19.60;99.90;;;;;;4938648;28;20057;-82
2020/12/23 12:01:22;;;;;;;7.75;1.33;;;19.60;99.90;;;;;;4953004;29;20031;-82
2020/12/23 12:03:49;;;;;;;8.15;1.15;;;19.60;99.90;;;;;;4953022;29;20039;-82
2020/12/23 12:06:22;;;;;;;8.02;1.13;;;19.50;99.90;;;;;;4947758;28;20041;-82
2020/12/23 12:08:50;;;;;;;6.57;1.10;;;19.50;99.90;;;;;;4955148;28;20030;-82
2020/12/23 12:11:17;;;;;;;10.98;1.30;;;19.60;99.90;;;;;;4954628;29;20023;-82
2020/12/23 12:13:45;;;;;;;6.82;1.45;;;19.50;99.90;;;;;;4955046;29;20032;-82
2020/12/23 12:16:13;;;;;;;7.75;1.15;;;19.50;99.90;;;;;;4991119;23;20090;-82
2020/12/23 12:18:43;;;;;;;8.73;1.00;;;19.50;99.90;;;;;;4968320;23;20505;-82
2020/12/23 12:21:10;;;;;;;9.13;1.20;;;19.50;99.90;;;;;;4974572;28;20022;-82
2020/12/23 12:23:38;;;;;;;8.00;1.30;;;19.50;99.90;;;;;;4988835;23;20585;-82
2020/12/23 12:26:05;;;;;;;8.10;1.13;;;19.50;99.90;;;;;;4970275;28;20573;-82
2020/12/23 12:28:32;;;;;;;9.43;0.80;;;19.40;99.90;;;;;;4970559;28;20033;-82
2020/12/23 12:30:59;;;;;;;7.47;0.70;;;19.40;99.90;;;;;;4974927;28;20407;-82
2020/12/23 12:33:27;;;;;;;6.90;1.33;;;19.40;99.90;;;;;;4976306;23;20059;-82
2020/12/23 12:35:54;;;;;;;6.80;0.70;;;19.40;99.90;;;;;;4952007;28;20602;-82
2020/12/23 12:38:21;;;;;;;7.55;1.20;;;19.50;99.90;;;;;;4948513;28;20030;-82
2020/12/23 12:40:48;;;;;;;7.05;0.60;;;19.50;99.90;;;;;;4935253;29;20020;-82
2020/12/23 12:43:16;;;;;;;10.52;1.42;;;19.50;99.90;;;;;;4951726;28;20121;-82
2020/12/23 12:45:43;;;;;;;7.20;0.73;;;19.50;99.90;;;;;;4936329;29;20058;-82
2020/12/23 12:48:10;;;;;;;10.05;1.00;;;19.40;99.90;;;;;;4968958;23;20042;-82
2020/12/23 12:50:37;;;;;;;6.88;1.45;;;19.40;99.90;;;;;;4991751;28;20027;-82
2020/12/23 12:53:05;;;;;;;13.05;1.80;;;19.30;99.90;;;;;;4975041;28;20031;-82
2020/12/23 12:55:32;;;;;;;7.57;0.93;;;19.30;99.90;;;;;;4991292;28;20035;-82
2020/12/23 12:57:59;;;;;;;10.27;1.55;;;19.40;99.90;;;;;;4972359;28;20034;-82
2020/12/23 13:00:26;;;;;;;10.05;1.00;;;19.30;99.90;;;;;;4972588;28;20033;-83